sensor_id;sensor_type;location;lat;lon;timestamp;P1;durP1;ratioP1;P2;durP2;ratioP2
16071;SDS011;8140;51.086;6.954;2022-09-01T00:02:05;1.60;;;1.50;;
16071;SDS011;8140;51.086;6.954;2022-09-01T00:04:33;2.58;;;1.58;;
16071;SDS011;8140;51.086;6.954;2022-09-01T00:07:03;1.60;;;1.50;;
16071;SDS011;8140;51.086;6.954;2022-09-01T00:09:30;1.38;;;1.27;;
16071;SDS011;8140;51.086;6.954;2022-09-01T00:11:56;2.17;;;1.75;;
16071;SDS011;8140;51.086;6.954;2022-09-01T00:14:24;1.90;;;1.77;;
16071;SDS011;8140;51.086;6.954;2022-09-01T00:16:52;2.58;;;1.55;;
16071;SDS011;8140;51.086;6.954;2022-09-01T00:19:20;3.47;;;1.25;;
16071;SDS011;8140;51.086;6.954;2022-09-01T00:21:47;1.50;;;1.40;;
16071;SDS011;8140;51.086;6.954;2022-09-01T00:24:14;1.95;;;1.75;;
16071;SDS011;8140;51.086;6.954;2022-09-01T00:26:41;1.70;;;1.60;;
16071;SDS011;8140;51.086;6.954;2022-09-01T00:29:08;1.60;;;1.50;;
16071;SDS011;8140;51.086;6.954;2022-09-01T00:31:35;2.83;;;1.50;;
16071;SDS011;8140;51.086;6.954;2022-09-01T00:34:01;3.30;;;1.67;;
16071;SDS011;8140;51.086;6.954;2022-09-01T00:36:29;1.60;;;1.50;;
16071;SDS011;8140;51.086;6.954;2022-09-01T00:38:56;2.35;;;2.15;;
16071;SDS011;8140;51.086;6.954;2022-09-01T00:41:23;1.63;;;1.52;;
16071;SDS011;8140;51.086;6.954;2022-09-01T00:43:52;1.90;;;1.80;;
16071;SDS011;8140;51.086;6.954;2022-09-01T00:46:20;1.90;;;1.80;;
16071;SDS011;8140;51.086;6.954;2022-09-01T00:48:47;3.17;;;1.73;;
16071;SDS011;8140;51.086;6.954;2022-09-01T00:51:16;3.72;;;1.80;;
16071;SDS011;8140;51.086;6.954;2022-09-01T00:53:44;3.15;;;1.50;;
16071;SDS011;8140;51.086;6.954;2022-09-01T00:56:11;1.98;;;1.88;;
16071;SDS011;8140;51.086;6.954;2022-09-01T00:58:38;1.85;;;1.60;;
16071;SDS011;8140;51.086;6.954;2022-09-01T01:01:06;2.58;;;2.30;;
16071;SDS011;8140;51.086;6.954;2022-09-01T01:03:33;1.85;;;1.75;;
16071;SDS011;8140;51.086;6.954;2022-09-01T01:06:00;2.00;;;1.80;;
16071;SDS011;8140;51.086;6.954;2022-09-01T01:08:33;2.95;;;2.13;;
16071;SDS011;8140;51.086;6.954;2022-09-01T01:11:02;1.73;;;1.38;;
16071;SDS011;8140;51.086;6.954;2022-09-01T01:13:34;2.00;;;1.63;;
16071;SDS011;8140;51.086;6.954;2022-09-01T01:16:13;1.58;;;1.48;;
16071;SDS011;8140;51.086;6.954;2022-09-01T01:18:40;2.85;;;1.90;;
16071;SDS011;8140;51.086;6.954;2022-09-01T01:21:09;2.88;;;1.67;;
16071;SDS011;8140;51.086;6.954;2022-09-01T01:24:01;2.72;;;1.95;;
16071;SDS011;8140;51.086;6.954;2022-09-01T01:26:33;1.70;;;1.60;;
16071;SDS011;8140;51.086;6.954;2022-09-01T01:28:59;2.75;;;1.75;;
16071;SDS011;8140;51.086;6.954;2022-09-01T01:31:28;1.80;;;1.65;;
16071;SDS011;8140;51.086;6.954;2022-09-01T01:33:57;1.67;;;1.58;;
16071;SDS011;8140;51.086;6.954;2022-09-01T01:36:28;4.18;;;1.70;;
16071;SDS011;8140;51.086;6.954;2022-09-01T01:38:59;1.60;;;1.50;;
16071;SDS011;8140;51.086;6.954;2022-09-01T01:41:28;2.08;;;1.88;;
16071;SDS011;8140;51.086;6.954;2022-09-01T01:43:58;2.08;;;1.63;;
16071;SDS011;8140;51.086;6.954;2022-09-01T01:46:29;2.13;;;1.80;;
16071;SDS011;8140;51.086;6.954;2022-09-01T01:48:56;2.05;;;1.95;;
16071;SDS011;8140;51.086;6.954;2022-09-01T01:51:25;2.47;;;1.98;;
16071;SDS011;8140;51.086;6.954;2022-09-01T01:53:52;2.33;;;1.80;;
16071;SDS011;8140;51.086;6.954;2022-09-01T01:56:19;1.92;;;1.80;;
16071;SDS011;8140;51.086;6.954;2022-09-01T01:58:47;2.72;;;1.80;;
16071;SDS011;8140;51.086;6.954;2022-09-01T02:01:15;1.98;;;1.88;;
16071;SDS011;8140;51.086;6.954;2022-09-01T02:03:46;1.70;;;1.60;;
16071;SDS011;8140;51.086;6.954;2022-09-01T02:06:15;1.85;;;1.75;;
16071;SDS011;8140;51.086;6.954;2022-09-01T02:08:44;1.67;;;1.58;;
16071;SDS011;8140;51.086;6.954;2022-09-01T02:11:10;2.50;;;1.75;;
16071;SDS011;8140;51.086;6.954;2022-09-01T02:13:37;1.95;;;1.80;;
16071;SDS011;8140;51.086;6.954;2022-09-01T02:16:05;2.42;;;1.98;;
16071;SDS011;8140;51.086;6.954;2022-09-01T02:18:39;1.70;;;1.60;;
16071;SDS011;8140;51.086;6.954;2022-09-01T02:21:08;3.17;;;1.70;;
16071;SDS011;8140;51.086;6.954;2022-09-01T02:23:35;1.60;;;1.50;;
16071;SDS011;8140;51.086;6.954;2022-09-01T02:26:02;2.30;;;1.77;;
16071;SDS011;8140;51.086;6.954;2022-09-01T02:28:31;2.30;;;1.55;;
16071;SDS011;8140;51.086;6.954;2022-09-01T02:31:02;1.50;;;1.40;;
16071;SDS011;8140;51.086;6.954;2022-09-01T02:33:29;2.38;;;1.63;;
16071;SDS011;8140;51.086;6.954;2022-09-01T02:35:59;1.60;;;1.50;;
16071;SDS011;8140;51.086;6.954;2022-09-01T02:38:25;2.30;;;1.30;;
16071;SDS011;8140;51.086;6.954;2022-09-01T02:40:53;3.28;;;1.70;;
16071;SDS011;8140;51.086;6.954;2022-09-01T02:43:20;1.52;;;1.42;;
16071;SDS011;8140;51.086;6.954;2022-09-01T02:45:48;1.92;;;1.70;;
16071;SDS011;8140;51.086;6.954;2022-09-01T02:48:20;1.65;;;1.38;;
16071;SDS011;8140;51.086;6.954;2022-09-01T02:50:49;1.60;;;1.50;;
16071;SDS011;8140;51.086;6.954;2022-09-01T02:53:17;1.95;;;1.55;;
16071;SDS011;8140;51.086;6.954;2022-09-01T02:55:45;1.70;;;1.60;;
16071;SDS011;8140;51.086;6.954;2022-09-01T02:58:12;1.60;;;1.50;;
16071;SDS011;8140;51.086;6.954;2022-09-01T03:00:40;1.88;;;1.77;;
16071;SDS011;8140;51.086;6.954;2022-09-01T03:03:07;1.73;;;1.55;;
16071;SDS011;8140;51.086;6.954;2022-09-01T03:05:37;3.03;;;1.67;;
16071;SDS011;8140;51.086;6.954;2022-09-01T03:08:04;1.50;;;1.40;;
16071;SDS011;8140;51.086;6.954;2022-09-01T03:10:34;1.77;;;1.65;;
16071;SDS011;8140;51.086;6.954;2022-09-01T03:13:03;2.78;;;1.60;;
16071;SDS011;8140;51.086;6.954;2022-09-01T03:15:31;1.50;;;1.40;;
16071;SDS011;8140;51.086;6.954;2022-09-01T03:17:59;1.65;;;1.55;;
16071;SDS011;8140;51.086;6.954;2022-09-01T03:20:27;2.72;;;1.65;;
16071;SDS011;8140;51.086;6.954;2022-09-01T03:22:54;1.50;;;1.40;;
16071;SDS011;8140;51.086;6.954;2022-09-01T03:25:22;2.15;;;1.88;;
16071;SDS011;8140;51.086;6.954;2022-09-01T03:27:52;2.10;;;1.90;;
16071;SDS011;8140;51.086;6.954;2022-09-01T03:30:19;1.83;;;1.73;;
16071;SDS011;8140;51.086;6.954;2022-09-01T03:32:45;1.60;;;1.50;;
16071;SDS011;8140;51.086;6.954;2022-09-01T03:35:12;1.90;;;1.55;;
16071;SDS011;8140;51.086;6.954;2022-09-01T03:37:40;1.70;;;1.60;;
16071;SDS011;8140;51.086;6.954;2022-09-01T03:40:09;1.63;;;1.52;;
16071;SDS011;8140;51.086;6.954;2022-09-01T03:42:36;2.20;;;2.00;;
16071;SDS011;8140;51.086;6.954;2022-09-01T03:45:05;2.15;;;1.67;;
16071;SDS011;8140;51.086;6.954;2022-09-01T03:47:41;2.10;;;2.00;;
16071;SDS011;8140;51.086;6.954;2022-09-01T03:50:10;2.10;;;1.90;;
16071;SDS011;8140;51.086;6.954;2022-09-01T03:52:42;2.33;;;2.13;;
16071;SDS011;8140;51.086;6.954;2022-09-01T03:55:09;2.30;;;2.10;;
16071;SDS011;8140;51.086;6.954;2022-09-01T03:57:37;2.15;;;1.95;;
16071;SDS011;8140;51.086;6.954;2022-09-01T04:00:09;1.70;;;1.60;;
16071;SDS011;8140;51.086;6.954;2022-09-01T04:02:45;2.28;;;2.08;;
16071;SDS011;8140;51.086;6.954;2022-09-01T04:05:12;1.98;;;1.85;;
16071;SDS011;8140;51.086;6.954;2022-09-01T04:07:39;3.50;;;2.13;;
16071;SDS011;8140;51.086;6.954;2022-09-01T04:10:05;5.82;;;2.67;;
16071;SDS011;8140;51.086;6.954;2022-09-01T04:12:35;3.70;;;1.80;;
16071;SDS011;8140;51.086;6.954;2022-09-01T04:15:03;3.50;;;1.75;;
16071;SDS011;8140;51.086;6.954;2022-09-01T04:17:31;4.47;;;2.08;;
16071;SDS011;8140;51.086;6.954;2022-09-01T04:20:15;4.72;;;1.85;;
16071;SDS011;8140;51.086;6.954;2022-09-01T04:22:44;3.80;;;2.08;;
16071;SDS011;8140;51.086;6.954;2022-09-01T04:25:11;1.73;;;1.63;;
16071;SDS011;8140;51.086;6.954;2022-09-01T04:27:39;4.25;;;1.42;;
16071;SDS011;8140;51.086;6.954;2022-09-01T04:30:08;1.67;;;1.58;;
16071;SDS011;8140;51.086;6.954;2022-09-01T04:32:37;2.97;;;1.50;;
16071;SDS011;8140;51.086;6.954;2022-09-01T04:35:05;3.22;;;1.58;;
16071;SDS011;8140;51.086;6.954;2022-09-01T04:37:32;3.83;;;1.80;;
16071;SDS011;8140;51.086;6.954;2022-09-01T04:40:01;2.15;;;1.50;;
16071;SDS011;8140;51.086;6.954;2022-09-01T04:42:29;2.00;;;1.75;;
16071;SDS011;8140;51.086;6.954;2022-09-01T04:44:57;3.08;;;1.52;;
16071;SDS011;8140;51.086;6.954;2022-09-01T04:47:26;1.77;;;1.63;;
16071;SDS011;8140;51.086;6.954;2022-09-01T04:49:57;2.08;;;1.65;;
16071;SDS011;8140;51.086;6.954;2022-09-01T04:52:25;1.83;;;1.63;;
16071;SDS011;8140;51.086;6.954;2022-09-01T04:54:52;2.92;;;1.58;;
16071;SDS011;8140;51.086;6.954;2022-09-01T04:57:20;2.83;;;2.10;;
16071;SDS011;8140;51.086;6.954;2022-09-01T04:59:47;3.45;;;2.15;;
16071;SDS011;8140;51.086;6.954;2022-09-01T05:02:14;4.03;;;2.10;;
16071;SDS011;8140;51.086;6.954;2022-09-01T05:04:41;4.68;;;2.75;;
16071;SDS011;8140;51.086;6.954;2022-09-01T05:07:13;2.78;;;2.25;;
16071;SDS011;8140;51.086;6.954;2022-09-01T05:09:40;2.47;;;2.28;;
16071;SDS011;8140;51.086;6.954;2022-09-01T05:12:25;3.72;;;2.40;;
16071;SDS011;8140;51.086;6.954;2022-09-01T05:14:52;3.28;;;2.90;;
16071;SDS011;8140;51.086;6.954;2022-09-01T05:17:20;2.53;;;2.30;;
16071;SDS011;8140;51.086;6.954;2022-09-01T05:19:49;2.42;;;2.22;;
16071;SDS011;8140;51.086;6.954;2022-09-01T05:22:17;2.80;;;2.60;;
16071;SDS011;8140;51.086;6.954;2022-09-01T05:25:00;4.28;;;2.75;;
16071;SDS011;8140;51.086;6.954;2022-09-01T05:27:29;3.85;;;3.17;;
16071;SDS011;8140;51.086;6.954;2022-09-01T05:29:56;3.65;;;2.53;;
16071;SDS011;8140;51.086;6.954;2022-09-01T05:32:25;4.88;;;2.53;;
16071;SDS011;8140;51.086;6.954;2022-09-01T05:34:52;4.10;;;2.28;;
16071;SDS011;8140;51.086;6.954;2022-09-01T05:37:21;4.05;;;2.60;;
16071;SDS011;8140;51.086;6.954;2022-09-01T05:39:47;2.67;;;2.47;;
16071;SDS011;8140;51.086;6.954;2022-09-01T05:42:14;7.93;;;2.50;;
16071;SDS011;8140;51.086;6.954;2022-09-01T05:44:42;3.83;;;2.47;;
16071;SDS011;8140;51.086;6.954;2022-09-01T05:47:10;5.10;;;2.40;;
16071;SDS011;8140;51.086;6.954;2022-09-01T05:49:38;3.08;;;2.10;;
16071;SDS011;8140;51.086;6.954;2022-09-01T05:52:06;7.40;;;3.13;;
16071;SDS011;8140;51.086;6.954;2022-09-01T05:54:35;4.93;;;2.40;;
16071;SDS011;8140;51.086;6.954;2022-09-01T05:57:02;4.38;;;2.58;;
16071;SDS011;8140;51.086;6.954;2022-09-01T05:59:31;3.05;;;2.75;;
16071;SDS011;8140;51.086;6.954;2022-09-01T06:02:07;3.05;;;2.10;;
16071;SDS011;8140;51.086;6.954;2022-09-01T06:04:36;4.38;;;1.73;;
16071;SDS011;8140;51.086;6.954;2022-09-01T06:07:05;2.97;;;2.25;;
16071;SDS011;8140;51.086;6.954;2022-09-01T06:09:37;1.90;;;1.80;;
16071;SDS011;8140;51.086;6.954;2022-09-01T06:12:04;1.77;;;1.67;;
16071;SDS011;8140;51.086;6.954;2022-09-01T06:14:31;1.90;;;1.80;;
16071;SDS011;8140;51.086;6.954;2022-09-01T06:16:59;3.88;;;1.70;;
16071;SDS011;8140;51.086;6.954;2022-09-01T06:19:27;1.67;;;1.58;;
16071;SDS011;8140;51.086;6.954;2022-09-01T06:21:54;1.40;;;1.30;;
16071;SDS011;8140;51.086;6.954;2022-09-01T06:24:21;1.60;;;1.10;;
16071;SDS011;8140;51.086;6.954;2022-09-01T06:26:50;1.55;;;1.10;;
16071;SDS011;8140;51.086;6.954;2022-09-01T06:29:19;1.30;;;1.20;;
16071;SDS011;8140;51.086;6.954;2022-09-01T06:31:49;1.52;;;1.02;;
16071;SDS011;8140;51.086;6.954;2022-09-01T06:34:17;1.02;;;0.95;;
16071;SDS011;8140;51.086;6.954;2022-09-01T06:36:44;1.80;;;0.90;;
16071;SDS011;8140;51.086;6.954;2022-09-01T06:39:13;2.03;;;0.98;;
16071;SDS011;8140;51.086;6.954;2022-09-01T06:41:45;0.98;;;0.93;;
16071;SDS011;8140;51.086;6.954;2022-09-01T06:44:15;2.35;;;1.15;;
16071;SDS011;8140;51.086;6.954;2022-09-01T06:46:49;1.15;;;1.05;;
16071;SDS011;8140;51.086;6.954;2022-09-01T06:49:17;3.60;;;1.30;;
16071;SDS011;8140;51.086;6.954;2022-09-01T06:51:45;1.38;;;0.77;;
16071;SDS011;8140;51.086;6.954;2022-09-01T06:54:16;3.08;;;0.90;;
16071;SDS011;8140;51.086;6.954;2022-09-01T06:56:44;2.15;;;1.13;;
16071;SDS011;8140;51.086;6.954;2022-09-01T06:59:11;3.70;;;1.33;;
16071;SDS011;8140;51.086;6.954;2022-09-01T07:01:42;1.13;;;1.00;;
16071;SDS011;8140;51.086;6.954;2022-09-01T07:04:10;2.30;;;0.80;;
16071;SDS011;8140;51.086;6.954;2022-09-01T07:06:39;0.90;;;0.75;;
16071;SDS011;8140;51.086;6.954;2022-09-01T07:09:15;1.27;;;0.80;;
16071;SDS011;8140;51.086;6.954;2022-09-01T07:11:46;1.20;;;1.10;;
16071;SDS011;8140;51.086;6.954;2022-09-01T07:14:14;1.13;;;0.90;;
16071;SDS011;8140;51.086;6.954;2022-09-01T07:16:42;2.15;;;1.13;;
16071;SDS011;8140;51.086;6.954;2022-09-01T07:19:11;1.23;;;0.80;;
16071;SDS011;8140;51.086;6.954;2022-09-01T07:21:51;1.75;;;0.93;;
16071;SDS011;8140;51.086;6.954;2022-09-01T07:24:20;1.83;;;0.95;;
16071;SDS011;8140;51.086;6.954;2022-09-01T07:27:05;2.25;;;1.00;;
16071;SDS011;8140;51.086;6.954;2022-09-01T07:29:34;2.45;;;1.00;;
16071;SDS011;8140;51.086;6.954;2022-09-01T07:32:02;1.10;;;0.93;;
16071;SDS011;8140;51.086;6.954;2022-09-01T07:34:29;1.10;;;0.88;;
16071;SDS011;8140;51.086;6.954;2022-09-01T07:36:58;2.45;;;0.90;;
16071;SDS011;8140;51.086;6.954;2022-09-01T07:39:27;1.33;;;0.70;;
16071;SDS011;8140;51.086;6.954;2022-09-01T07:42:15;1.83;;;1.00;;
16071;SDS011;8140;51.086;6.954;2022-09-01T07:45:20;3.10;;;1.20;;
16071;SDS011;8140;51.086;6.954;2022-09-01T07:48:00;1.10;;;0.90;;
16071;SDS011;8140;51.086;6.954;2022-09-01T07:50:34;1.98;;;0.98;;
16071;SDS011;8140;51.086;6.954;2022-09-01T07:53:01;0.82;;;0.70;;
16071;SDS011;8140;51.086;6.954;2022-09-01T07:55:27;2.80;;;0.85;;
16071;SDS011;8140;51.086;6.954;2022-09-01T07:57:55;2.97;;;0.80;;
16071;SDS011;8140;51.086;6.954;2022-09-01T08:00:22;2.67;;;1.00;;
16071;SDS011;8140;51.086;6.954;2022-09-01T08:02:54;1.65;;;0.75;;
16071;SDS011;8140;51.086;6.954;2022-09-01T08:05:22;0.82;;;0.60;;
16071;SDS011;8140;51.086;6.954;2022-09-01T08:07:51;1.63;;;1.15;;
16071;SDS011;8140;51.086;6.954;2022-09-01T08:10:20;2.28;;;1.17;;
16071;SDS011;8140;51.086;6.954;2022-09-01T08:12:48;0.75;;;0.68;;
16071;SDS011;8140;51.086;6.954;2022-09-01T08:15:15;1.05;;;0.82;;
16071;SDS011;8140;51.086;6.954;2022-09-01T08:17:43;1.00;;;0.68;;
16071;SDS011;8140;51.086;6.954;2022-09-01T08:20:12;0.63;;;0.55;;
16071;SDS011;8140;51.086;6.954;2022-09-01T08:22:49;2.22;;;0.68;;
16071;SDS011;8140;51.086;6.954;2022-09-01T08:25:29;0.70;;;0.60;;
16071;SDS011;8140;51.086;6.954;2022-09-01T08:27:57;4.22;;;0.70;;
16071;SDS011;8140;51.086;6.954;2022-09-01T08:30:24;2.33;;;0.60;;
16071;SDS011;8140;51.086;6.954;2022-09-01T08:32:52;4.65;;;0.63;;
16071;SDS011;8140;51.086;6.954;2022-09-01T08:35:18;1.75;;;0.52;;
16071;SDS011;8140;51.086;6.954;2022-09-01T08:37:45;0.70;;;0.60;;
16071;SDS011;8140;51.086;6.954;2022-09-01T08:40:14;0.70;;;0.47;;
16071;SDS011;8140;51.086;6.954;2022-09-01T08:42:48;1.95;;;0.52;;
16071;SDS011;8140;51.086;6.954;2022-09-01T08:45:19;0.85;;;0.75;;
16071;SDS011;8140;51.086;6.954;2022-09-01T08:47:46;1.00;;;0.90;;
16071;SDS011;8140;51.086;6.954;2022-09-01T08:50:13;1.10;;;0.63;;
16071;SDS011;8140;51.086;6.954;2022-09-01T08:52:57;0.55;;;0.55;;
16071;SDS011;8140;51.086;6.954;2022-09-01T08:55:31;0.47;;;0.47;;
16071;SDS011;8140;51.086;6.954;2022-09-01T08:58:02;0.52;;;0.40;;
16071;SDS011;8140;51.086;6.954;2022-09-01T09:00:46;0.47;;;0.45;;
16071;SDS011;8140;51.086;6.954;2022-09-01T09:03:19;1.45;;;0.95;;
16071;SDS011;8140;51.086;6.954;2022-09-01T09:05:55;1.17;;;0.57;;
16071;SDS011;8140;51.086;6.954;2022-09-01T09:08:27;2.28;;;0.70;;
16071;SDS011;8140;51.086;6.954;2022-09-01T09:10:57;1.20;;;0.70;;
16071;SDS011;8140;51.086;6.954;2022-09-01T09:13:28;1.27;;;0.52;;
16071;SDS011;8140;51.086;6.954;2022-09-01T09:15:57;0.90;;;0.60;;
16071;SDS011;8140;51.086;6.954;2022-09-01T09:18:35;0.80;;;0.70;;
16071;SDS011;8140;51.086;6.954;2022-09-01T09:21:05;1.10;;;0.77;;
16071;SDS011;8140;51.086;6.954;2022-09-01T09:23:35;0.80;;;0.70;;
16071;SDS011;8140;51.086;6.954;2022-09-01T09:26:05;1.95;;;0.50;;
16071;SDS011;8140;51.086;6.954;2022-09-01T09:28:31;1.73;;;0.40;;
16071;SDS011;8140;51.086;6.954;2022-09-01T09:33:45;1.77;;;0.70;;
16071;SDS011;8140;51.086;6.954;2022-09-01T09:36:15;1.15;;;0.70;;
16071;SDS011;8140;51.086;6.954;2022-09-01T09:38:43;0.88;;;0.57;;
16071;SDS011;8140;51.086;6.954;2022-09-01T09:41:15;1.23;;;0.60;;
16071;SDS011;8140;51.086;6.954;2022-09-01T09:43:42;0.60;;;0.60;;
16071;SDS011;8140;51.086;6.954;2022-09-01T09:46:24;2.15;;;0.77;;
16071;SDS011;8140;51.086;6.954;2022-09-01T09:49:05;0.90;;;0.50;;
16071;SDS011;8140;51.086;6.954;2022-09-01T09:51:32;2.15;;;0.63;;
16071;SDS011;8140;51.086;6.954;2022-09-01T09:54:09;0.82;;;0.60;;
16071;SDS011;8140;51.086;6.954;2022-09-01T09:56:38;1.10;;;0.52;;
16071;SDS011;8140;51.086;6.954;2022-09-01T09:59:15;1.02;;;0.60;;
16071;SDS011;8140;51.086;6.954;2022-09-01T10:01:42;1.63;;;0.70;;
16071;SDS011;8140;51.086;6.954;2022-09-01T10:04:09;0.60;;;0.60;;
16071;SDS011;8140;51.086;6.954;2022-09-01T10:06:37;0.60;;;0.50;;
16071;SDS011;8140;51.086;6.954;2022-09-01T10:09:06;1.83;;;0.60;;
16071;SDS011;8140;51.086;6.954;2022-09-01T10:11:35;2.70;;;0.70;;
16071;SDS011;8140;51.086;6.954;2022-09-01T10:14:05;1.75;;;0.60;;
16071;SDS011;8140;51.086;6.954;2022-09-01T10:16:32;3.25;;;0.60;;
16071;SDS011;8140;51.086;6.954;2022-09-01T10:19:02;1.63;;;0.50;;
16071;SDS011;8140;51.086;6.954;2022-09-01T10:21:32;1.38;;;0.77;;
16071;SDS011;8140;51.086;6.954;2022-09-01T10:24:01;2.90;;;0.70;;
16071;SDS011;8140;51.086;6.954;2022-09-01T10:26:30;2.03;;;0.52;;
16071;SDS011;8140;51.086;6.954;2022-09-01T10:28:59;0.85;;;0.77;;
16071;SDS011;8140;51.086;6.954;2022-09-01T10:31:28;1.10;;;0.60;;
16071;SDS011;8140;51.086;6.954;2022-09-01T10:33:55;4.32;;;0.60;;
16071;SDS011;8140;51.086;6.954;2022-09-01T10:36:22;2.13;;;0.60;;
16071;SDS011;8140;51.086;6.954;2022-09-01T10:38:48;1.05;;;0.50;;
16071;SDS011;8140;51.086;6.954;2022-09-01T10:44:06;0.80;;;0.70;;
16071;SDS011;8140;51.086;6.954;2022-09-01T10:49:21;0.60;;;0.60;;
16071;SDS011;8140;51.086;6.954;2022-09-01T10:52:07;1.38;;;0.70;;
16071;SDS011;8140;51.086;6.954;2022-09-01T10:54:51;1.63;;;0.60;;
16071;SDS011;8140;51.086;6.954;2022-09-01T10:57:23;1.92;;;0.80;;
16071;SDS011;8140;51.086;6.954;2022-09-01T10:59:51;2.53;;;0.70;;
16071;SDS011;8140;51.086;6.954;2022-09-01T11:02:19;1.48;;;0.80;;
16071;SDS011;8140;51.086;6.954;2022-09-01T11:07:32;1.75;;;0.93;;
16071;SDS011;8140;51.086;6.954;2022-09-01T11:10:21;2.53;;;0.73;;
16071;SDS011;8140;51.086;6.954;2022-09-01T11:12:51;1.42;;;1.13;;
16071;SDS011;8140;51.086;6.954;2022-09-01T11:15:34;1.25;;;0.77;;
16071;SDS011;8140;51.086;6.954;2022-09-01T11:18:01;0.90;;;0.80;;
16071;SDS011;8140;51.086;6.954;2022-09-01T11:20:28;2.53;;;1.25;;
16071;SDS011;8140;51.086;6.954;2022-09-01T11:22:59;2.45;;;0.70;;
16071;SDS011;8140;51.086;6.954;2022-09-01T11:30:45;1.70;;;0.73;;
16071;SDS011;8140;51.086;6.954;2022-09-01T11:33:23;0.95;;;0.80;;
16071;SDS011;8140;51.086;6.954;2022-09-01T11:35:56;1.10;;;0.77;;
16071;SDS011;8140;51.086;6.954;2022-09-01T11:38:25;0.98;;;0.70;;
16071;SDS011;8140;51.086;6.954;2022-09-01T11:40:53;3.38;;;1.00;;
16071;SDS011;8140;51.086;6.954;2022-09-01T11:43:20;0.75;;;0.55;;
16071;SDS011;8140;51.086;6.954;2022-09-01T11:45:49;0.85;;;0.80;;
16071;SDS011;8140;51.086;6.954;2022-09-01T11:48:21;1.08;;;0.98;;
16071;SDS011;8140;51.086;6.954;2022-09-01T11:50:55;1.13;;;0.80;;
16071;SDS011;8140;51.086;6.954;2022-09-01T11:53:25;0.90;;;0.80;;
16071;SDS011;8140;51.086;6.954;2022-09-01T11:55:52;0.73;;;0.73;;
16071;SDS011;8140;51.086;6.954;2022-09-01T11:58:28;1.45;;;0.70;;
16071;SDS011;8140;51.086;6.954;2022-09-01T12:01:10;2.97;;;1.80;;
16071;SDS011;8140;51.086;6.954;2022-09-01T12:03:36;3.55;;;0.88;;
16071;SDS011;8140;51.086;6.954;2022-09-01T12:06:03;1.58;;;0.90;;
16071;SDS011;8140;51.086;6.954;2022-09-01T12:08:33;4.22;;;1.50;;
16071;SDS011;8140;51.086;6.954;2022-09-01T12:11:04;1.15;;;0.85;;
16071;SDS011;8140;51.086;6.954;2022-09-01T12:13:31;0.93;;;0.70;;
16071;SDS011;8140;51.086;6.954;2022-09-01T12:15:58;0.80;;;0.60;;
16071;SDS011;8140;51.086;6.954;2022-09-01T12:18:26;1.63;;;0.98;;
16071;SDS011;8140;51.086;6.954;2022-09-01T12:20:54;2.80;;;1.02;;
16071;SDS011;8140;51.086;6.954;2022-09-01T12:23:23;1.63;;;0.98;;
16071;SDS011;8140;51.086;6.954;2022-09-01T12:25:52;1.83;;;0.90;;
16071;SDS011;8140;51.086;6.954;2022-09-01T12:28:20;1.42;;;0.70;;
16071;SDS011;8140;51.086;6.954;2022-09-01T12:30:47;2.50;;;0.80;;
16071;SDS011;8140;51.086;6.954;2022-09-01T12:33:16;1.30;;;0.80;;
16071;SDS011;8140;51.086;6.954;2022-09-01T12:35:43;0.63;;;0.63;;
16071;SDS011;8140;51.086;6.954;2022-09-01T12:38:27;0.90;;;0.88;;
16071;SDS011;8140;51.086;6.954;2022-09-01T12:40:56;4.65;;;1.08;;
16071;SDS011;8140;51.086;6.954;2022-09-01T12:43:26;1.88;;;0.90;;
16071;SDS011;8140;51.086;6.954;2022-09-01T12:45:53;1.77;;;1.02;;
16071;SDS011;8140;51.086;6.954;2022-09-01T12:48:24;1.00;;;0.70;;
16071;SDS011;8140;51.086;6.954;2022-09-01T12:50:53;1.13;;;1.00;;
16071;SDS011;8140;51.086;6.954;2022-09-01T12:53:21;1.98;;;0.77;;
16071;SDS011;8140;51.086;6.954;2022-09-01T12:55:59;1.55;;;1.00;;
16071;SDS011;8140;51.086;6.954;2022-09-01T12:58:27;1.35;;;1.08;;
16071;SDS011;8140;51.086;6.954;2022-09-01T13:00:55;1.00;;;0.85;;
16071;SDS011;8140;51.086;6.954;2022-09-01T13:03:22;1.50;;;0.90;;
16071;SDS011;8140;51.086;6.954;2022-09-01T13:05:50;2.17;;;1.10;;
16071;SDS011;8140;51.086;6.954;2022-09-01T13:08:18;1.02;;;0.90;;
16071;SDS011;8140;51.086;6.954;2022-09-01T13:10:45;0.93;;;0.88;;
16071;SDS011;8140;51.086;6.954;2022-09-01T13:13:13;2.47;;;0.90;;
16071;SDS011;8140;51.086;6.954;2022-09-01T13:15:41;4.72;;;1.77;;
16071;SDS011;8140;51.086;6.954;2022-09-01T13:18:08;3.50;;;1.15;;
16071;SDS011;8140;51.086;6.954;2022-09-01T13:20:34;3.33;;;1.05;;
16071;SDS011;8140;51.086;6.954;2022-09-01T13:23:01;1.00;;;0.90;;
16071;SDS011;8140;51.086;6.954;2022-09-01T13:25:28;0.85;;;0.77;;
16071;SDS011;8140;51.086;6.954;2022-09-01T13:27:54;1.10;;;1.05;;
16071;SDS011;8140;51.086;6.954;2022-09-01T13:30:23;1.13;;;0.82;;
16071;SDS011;8140;51.086;6.954;2022-09-01T13:32:52;1.17;;;0.90;;
16071;SDS011;8140;51.086;6.954;2022-09-01T13:35:19;1.98;;;1.27;;
16071;SDS011;8140;51.086;6.954;2022-09-01T13:37:46;0.85;;;0.80;;
16071;SDS011;8140;51.086;6.954;2022-09-01T13:40:13;1.10;;;0.95;;
16071;SDS011;8140;51.086;6.954;2022-09-01T13:42:40;1.88;;;1.15;;
16071;SDS011;8140;51.086;6.954;2022-09-01T13:45:07;1.98;;;1.20;;
16071;SDS011;8140;51.086;6.954;2022-09-01T13:47:38;1.45;;;1.10;;
16071;SDS011;8140;51.086;6.954;2022-09-01T13:50:05;1.20;;;1.10;;
16071;SDS011;8140;51.086;6.954;2022-09-01T13:52:32;3.38;;;1.08;;
16071;SDS011;8140;51.086;6.954;2022-09-01T13:54:58;1.45;;;1.05;;
16071;SDS011;8140;51.086;6.954;2022-09-01T13:57:25;2.15;;;1.00;;
16071;SDS011;8140;51.086;6.954;2022-09-01T13:59:52;1.13;;;0.93;;
16071;SDS011;8140;51.086;6.954;2022-09-01T14:02:19;0.98;;;0.98;;
16071;SDS011;8140;51.086;6.954;2022-09-01T14:04:47;1.25;;;1.15;;
16071;SDS011;8140;51.086;6.954;2022-09-01T14:07:13;1.38;;;0.80;;
16071;SDS011;8140;51.086;6.954;2022-09-01T14:09:42;2.00;;;1.10;;
16071;SDS011;8140;51.086;6.954;2022-09-01T14:12:09;2.53;;;1.00;;
16071;SDS011;8140;51.086;6.954;2022-09-01T14:14:36;0.73;;;0.73;;
16071;SDS011;8140;51.086;6.954;2022-09-01T14:17:02;1.20;;;1.10;;
16071;SDS011;8140;51.086;6.954;2022-09-01T14:19:29;1.05;;;0.98;;
16071;SDS011;8140;51.086;6.954;2022-09-01T14:21:57;2.17;;;0.98;;
16071;SDS011;8140;51.086;6.954;2022-09-01T14:24:23;1.63;;;1.20;;
16071;SDS011;8140;51.086;6.954;2022-09-01T14:26:50;1.58;;;1.10;;
16071;SDS011;8140;51.086;6.954;2022-09-01T14:29:17;1.23;;;1.00;;
16071;SDS011;8140;51.086;6.954;2022-09-01T14:31:43;1.27;;;0.90;;
16071;SDS011;8140;51.086;6.954;2022-09-01T14:34:10;1.92;;;1.10;;
16071;SDS011;8140;51.086;6.954;2022-09-01T14:36:37;2.00;;;1.10;;
16071;SDS011;8140;51.086;6.954;2022-09-01T14:39:05;0.98;;;0.98;;
16071;SDS011;8140;51.086;6.954;2022-09-01T14:41:32;3.53;;;1.00;;
16071;SDS011;8140;51.086;6.954;2022-09-01T14:43:58;1.20;;;1.05;;
16071;SDS011;8140;51.086;6.954;2022-09-01T14:46:26;1.30;;;1.10;;
16071;SDS011;8140;51.086;6.954;2022-09-01T14:48:54;1.92;;;1.10;;
16071;SDS011;8140;51.086;6.954;2022-09-01T14:51:22;1.88;;;1.10;;
16071;SDS011;8140;51.086;6.954;2022-09-01T14:53:49;2.40;;;1.10;;
16071;SDS011;8140;51.086;6.954;2022-09-01T14:56:17;1.40;;;1.17;;
16071;SDS011;8140;51.086;6.954;2022-09-01T14:58:44;2.03;;;1.00;;
16071;SDS011;8140;51.086;6.954;2022-09-01T15:01:11;2.13;;;1.10;;
16071;SDS011;8140;51.086;6.954;2022-09-01T15:03:39;1.42;;;1.00;;
16071;SDS011;8140;51.086;6.954;2022-09-01T15:06:05;1.77;;;1.15;;
16071;SDS011;8140;51.086;6.954;2022-09-01T15:08:32;2.63;;;1.20;;
16071;SDS011;8140;51.086;6.954;2022-09-01T15:10:59;1.77;;;1.17;;
16071;SDS011;8140;51.086;6.954;2022-09-01T15:13:28;1.15;;;1.00;;
16071;SDS011;8140;51.086;6.954;2022-09-01T15:15:54;2.15;;;1.20;;
16071;SDS011;8140;51.086;6.954;2022-09-01T15:18:21;1.85;;;1.10;;
16071;SDS011;8140;51.086;6.954;2022-09-01T15:20:47;2.25;;;1.00;;
16071;SDS011;8140;51.086;6.954;2022-09-01T15:23:15;1.83;;;0.93;;
16071;SDS011;8140;51.086;6.954;2022-09-01T15:25:42;4.38;;;1.17;;
16071;SDS011;8140;51.086;6.954;2022-09-01T15:28:09;0.68;;;0.60;;
16071;SDS011;8140;51.086;6.954;2022-09-01T15:30:38;1.42;;;1.10;;